sensor_id;sensor_type;location;lat;lon;timestamp;P1;durP1;ratioP1;P2;durP2;ratioP2
74483;SDS011;62942;52.462;10.846;2024-01-16T00:00:47;1.9;;;5.6;;
74483;SDS011;62942;52.462;10.846;2024-01-16T00:01:57;1.8;;;5.1;;
74483;SDS011;62942;52.462;10.846;2024-01-16T00:02:57;1.8;;;5;;
74483;SDS011;62942;52.462;10.846;2024-01-16T00:03:57;1.7;;;4.5;;
74483;SDS011;62942;52.462;10.846;2024-01-16T00:04:57;1.9;;;4.8;;
74483;SDS011;62942;52.462;10.846;2024-01-16T00:06:07;1.6;;;3.3;;
74483;SDS011;62942;52.462;10.846;2024-01-16T00:07:17;1.9;;;5;;
74483;SDS011;62942;52.462;10.846;2024-01-16T00:08:27;1.9;;;4.3;;
74483;SDS011;62942;52.462;10.846;2024-01-16T00:09:37;1.8;;;3.7;;
74483;SDS011;62942;52.462;10.846;2024-01-16T00:10:47;2;;;5.4;;
74483;SDS011;62942;52.462;10.846;2024-01-16T00:11:57;1.7;;;4.2;;
74483;SDS011;62942;52.462;10.846;2024-01-16T00:13:07;1.7;;;4;;
74483;SDS011;62942;52.462;10.846;2024-01-16T00:14:17;1.9;;;4.4;;
74483;SDS011;62942;52.462;10.846;2024-01-16T00:15:27;1.9;;;4;;
74483;SDS011;62942;52.462;10.846;2024-01-16T00:16:27;2;;;4.5;;
74483;SDS011;62942;52.462;10.846;2024-01-16T00:17:37;1.7;;;4.3;;
74483;SDS011;62942;52.462;10.846;2024-01-16T00:18:47;2;;;6.1;;
74483;SDS011;62942;52.462;10.846;2024-01-16T00:19:47;1.9;;;4.1;;
74483;SDS011;62942;52.462;10.846;2024-01-16T00:20:47;1.6;;;4.4;;
74483;SDS011;62942;52.462;10.846;2024-01-16T00:21:47;1.9;;;4.8;;
74483;SDS011;62942;52.462;10.846;2024-01-16T00:22:57;1.9;;;4;;
74483;SDS011;62942;52.462;10.846;2024-01-16T00:23:57;2;;;6;;
74483;SDS011;62942;52.462;10.846;2024-01-16T00:24:57;2.1;;;5.9;;
74483;SDS011;62942;52.462;10.846;2024-01-16T00:26:07;2.1;;;5.4;;
74483;SDS011;62942;52.462;10.846;2024-01-16T00:27:17;2.2;;;5.2;;
74483;SDS011;62942;52.462;10.846;2024-01-16T00:28:27;2.4;;;5.4;;
74483;SDS011;62942;52.462;10.846;2024-01-16T00:29:37;2.3;;;4.7;;
74483;SDS011;62942;52.462;10.846;2024-01-16T00:30:37;2.4;;;5;;
74483;SDS011;62942;52.462;10.846;2024-01-16T00:31:47;2.6;;;5.9;;
74483;SDS011;62942;52.462;10.846;2024-01-16T00:32:57;2.4;;;5.3;;
74483;SDS011;62942;52.462;10.846;2024-01-16T00:33:57;2.3;;;5;;
74483;SDS011;62942;52.462;10.846;2024-01-16T00:35:07;2.4;;;5.3;;
74483;SDS011;62942;52.462;10.846;2024-01-16T00:36:07;2.4;;;5.2;;
74483;SDS011;62942;52.462;10.846;2024-01-16T00:37:17;2.5;;;4.9;;
74483;SDS011;62942;52.462;10.846;2024-01-16T00:38:27;2.5;;;6.2;;
74483;SDS011;62942;52.462;10.846;2024-01-16T00:39:37;2.4;;;5;;
74483;SDS011;62942;52.462;10.846;2024-01-16T00:40:47;2.6;;;5.2;;
74483;SDS011;62942;52.462;10.846;2024-01-16T00:41:47;2.3;;;6.6;;
74483;SDS011;62942;52.462;10.846;2024-01-16T00:42:57;2.6;;;5.4;;
74483;SDS011;62942;52.462;10.846;2024-01-16T00:43:57;2.6;;;4.9;;
74483;SDS011;62942;52.462;10.846;2024-01-16T00:44:57;2.5;;;5.1;;
74483;SDS011;62942;52.462;10.846;2024-01-16T00:46:07;2.6;;;5.1;;
74483;SDS011;62942;52.462;10.846;2024-01-16T00:47:07;2.6;;;5;;
74483;SDS011;62942;52.462;10.846;2024-01-16T00:48:17;2.6;;;6.9;;
74483;SDS011;62942;52.462;10.846;2024-01-16T00:49:27;2.5;;;4.3;;
74483;SDS011;62942;52.462;10.846;2024-01-16T00:50:27;2.8;;;6.2;;
74483;SDS011;62942;52.462;10.846;2024-01-16T00:51:27;2.7;;;5.2;;
74483;SDS011;62942;52.462;10.846;2024-01-16T00:52:37;2.5;;;4.7;;
74483;SDS011;62942;52.462;10.846;2024-01-16T00:53:39;2.7;;;5.2;;
74483;SDS011;62942;52.462;10.846;2024-01-16T00:54:47;2.6;;;5.4;;
74483;SDS011;62942;52.462;10.846;2024-01-16T00:55:57;2.7;;;5.4;;
74483;SDS011;62942;52.462;10.846;2024-01-16T00:57:07;2.6;;;5.4;;
74483;SDS011;62942;52.462;10.846;2024-01-16T00:58:07;2.6;;;5.1;;
74483;SDS011;62942;52.462;10.846;2024-01-16T00:59:17;2.7;;;5.2;;
74483;SDS011;62942;52.462;10.846;2024-01-16T01:00:27;2.7;;;5.4;;
74483;SDS011;62942;52.462;10.846;2024-01-16T01:01:37;3;;;7.1;;
74483;SDS011;62942;52.462;10.846;2024-01-16T01:02:47;2.9;;;5.4;;
74483;SDS011;62942;52.462;10.846;2024-01-16T01:03:57;2.9;;;5.4;;
74483;SDS011;62942;52.462;10.846;2024-01-16T01:05:07;2.6;;;4.8;;
74483;SDS011;62942;52.462;10.846;2024-01-16T01:06:17;2.8;;;5.5;;
74483;SDS011;62942;52.462;10.846;2024-01-16T01:07:27;2.9;;;6.5;;
74483;SDS011;62942;52.462;10.846;2024-01-16T01:08:27;2.8;;;5.5;;
74483;SDS011;62942;52.462;10.846;2024-01-16T01:09:27;2.8;;;4.7;;
74483;SDS011;62942;52.462;10.846;2024-01-16T01:10:37;2.9;;;5.5;;
74483;SDS011;62942;52.462;10.846;2024-01-16T01:11:47;2.9;;;6;;
74483;SDS011;62942;52.462;10.846;2024-01-16T01:12:57;3.1;;;6.2;;
74483;SDS011;62942;52.462;10.846;2024-01-16T01:13:57;3.2;;;7.1;;
74483;SDS011;62942;52.462;10.846;2024-01-16T01:15:07;3;;;6.2;;
74483;SDS011;62942;52.462;10.846;2024-01-16T01:16:07;2.9;;;5.2;;
74483;SDS011;62942;52.462;10.846;2024-01-16T01:17:17;3;;;6.5;;
74483;SDS011;62942;52.462;10.846;2024-01-16T01:18:17;3;;;5.3;;
74483;SDS011;62942;52.462;10.846;2024-01-16T01:19:27;2.9;;;5.6;;
74483;SDS011;62942;52.462;10.846;2024-01-16T01:20:37;2.8;;;5.7;;
74483;SDS011;62942;52.462;10.846;2024-01-16T01:21:47;3;;;6.2;;
74483;SDS011;62942;52.462;10.846;2024-01-16T01:22:57;3;;;7.2;;
74483;SDS011;62942;52.462;10.846;2024-01-16T01:23:57;3.1;;;6.8;;
74483;SDS011;62942;52.462;10.846;2024-01-16T01:25:07;3;;;6.6;;
74483;SDS011;62942;52.462;10.846;2024-01-16T01:26:17;3;;;5.8;;
74483;SDS011;62942;52.462;10.846;2024-01-16T01:27:17;2.9;;;5.6;;
74483;SDS011;62942;52.462;10.846;2024-01-16T01:28:27;3;;;6.2;;
74483;SDS011;62942;52.462;10.846;2024-01-16T01:29:37;3.1;;;6.4;;
74483;SDS011;62942;52.462;10.846;2024-01-16T01:30:47;3.1;;;6.6;;
74483;SDS011;62942;52.462;10.846;2024-01-16T01:31:57;3;;;6.4;;
74483;SDS011;62942;52.462;10.846;2024-01-16T01:32:57;2.9;;;5.9;;
74483;SDS011;62942;52.462;10.846;2024-01-16T01:34:07;3.2;;;6.5;;
74483;SDS011;62942;52.462;10.846;2024-01-16T01:35:07;3.1;;;6.6;;
74483;SDS011;62942;52.462;10.846;2024-01-16T01:36:17;3.1;;;5.3;;
74483;SDS011;62942;52.462;10.846;2024-01-16T01:37:17;3.2;;;7.6;;
74483;SDS011;62942;52.462;10.846;2024-01-16T01:38:27;3.4;;;6.9;;
74483;SDS011;62942;52.462;10.846;2024-01-16T01:39:37;3.4;;;6.4;;
74483;SDS011;62942;52.462;10.846;2024-01-16T01:40:47;3.3;;;5.8;;
74483;SDS011;62942;52.462;10.846;2024-01-16T01:41:57;3.3;;;6.5;;
74483;SDS011;62942;52.462;10.846;2024-01-16T01:43:23;3.5;;;7.3;;
74483;SDS011;62942;52.462;10.846;2024-01-16T01:44:17;3.6;;;6.2;;
74483;SDS011;62942;52.462;10.846;2024-01-16T01:45:17;3.4;;;6.5;;
74483;SDS011;62942;52.462;10.846;2024-01-16T01:46:27;3.3;;;6.7;;
74483;SDS011;62942;52.462;10.846;2024-01-16T01:47:37;3.3;;;6.3;;
74483;SDS011;62942;52.462;10.846;2024-01-16T01:48:47;3.3;;;6.4;;
74483;SDS011;62942;52.462;10.846;2024-01-16T01:49:47;3.2;;;8.7;;
74483;SDS011;62942;52.462;10.846;2024-01-16T01:50:57;3.4;;;7.9;;
74483;SDS011;62942;52.462;10.846;2024-01-16T01:51:57;3.3;;;7.3;;
74483;SDS011;62942;52.462;10.846;2024-01-16T01:53:07;3.4;;;6.5;;
74483;SDS011;62942;52.462;10.846;2024-01-16T01:54:07;3.2;;;7.1;;
74483;SDS011;62942;52.462;10.846;2024-01-16T01:55:08;3.2;;;6.2;;
74483;SDS011;62942;52.462;10.846;2024-01-16T01:56:17;3.6;;;7.5;;
74483;SDS011;62942;52.462;10.846;2024-01-16T01:57:27;3.7;;;8.1;;
74483;SDS011;62942;52.462;10.846;2024-01-16T01:58:37;3.6;;;6.7;;
74483;SDS011;62942;52.462;10.846;2024-01-16T01:59:37;3.6;;;6.6;;
74483;SDS011;62942;52.462;10.846;2024-01-16T02:00:47;3.8;;;6.9;;
74483;SDS011;62942;52.462;10.846;2024-01-16T02:01:47;3.9;;;9.4;;
74483;SDS011;62942;52.462;10.846;2024-01-16T02:02:57;3.8;;;7.5;;
74483;SDS011;62942;52.462;10.846;2024-01-16T02:03:57;4;;;8.7;;
74483;SDS011;62942;52.462;10.846;2024-01-16T02:04:57;3.9;;;6.6;;
74483;SDS011;62942;52.462;10.846;2024-01-16T02:06:07;3.9;;;7.9;;
74483;SDS011;62942;52.462;10.846;2024-01-16T02:07:17;4.1;;;9.1;;
74483;SDS011;62942;52.462;10.846;2024-01-16T02:08:27;4.3;;;9.6;;
74483;SDS011;62942;52.462;10.846;2024-01-16T02:09:37;4.1;;;10.6;;
74483;SDS011;62942;52.462;10.846;2024-01-16T02:10:47;3.8;;;6.9;;
74483;SDS011;62942;52.462;10.846;2024-01-16T02:11:57;4;;;8.4;;
74483;SDS011;62942;52.462;10.846;2024-01-16T02:13:07;4.1;;;7.9;;
74483;SDS011;62942;52.462;10.846;2024-01-16T02:14:17;4;;;7.3;;
74483;SDS011;62942;52.462;10.846;2024-01-16T02:15:27;4.1;;;8.4;;
74483;SDS011;62942;52.462;10.846;2024-01-16T02:16:37;4.2;;;7.9;;
74483;SDS011;62942;52.462;10.846;2024-01-16T02:17:47;4.1;;;8.3;;
74483;SDS011;62942;52.462;10.846;2024-01-16T02:18:57;4.1;;;6.6;;
74483;SDS011;62942;52.462;10.846;2024-01-16T02:20:07;4.4;;;8.4;;
74483;SDS011;62942;52.462;10.846;2024-01-16T02:21:07;4;;;7.8;;
74483;SDS011;62942;52.462;10.846;2024-01-16T02:22:19;4.3;;;9.5;;
74483;SDS011;62942;52.462;10.846;2024-01-16T02:23:27;4.6;;;9.7;;
74483;SDS011;62942;52.462;10.846;2024-01-16T02:24:27;4.3;;;10.3;;
74483;SDS011;62942;52.462;10.846;2024-01-16T02:25:37;4.5;;;10.6;;
74483;SDS011;62942;52.462;10.846;2024-01-16T02:26:47;4.4;;;8.9;;
74483;SDS011;62942;52.462;10.846;2024-01-16T02:27:57;4.6;;;9.3;;
74483;SDS011;62942;52.462;10.846;2024-01-16T02:29:07;4.2;;;7.5;;
74483;SDS011;62942;52.462;10.846;2024-01-16T02:30:07;4.3;;;7.2;;
74483;SDS011;62942;52.462;10.846;2024-01-16T02:31:07;4.3;;;8.4;;
74483;SDS011;62942;52.462;10.846;2024-01-16T02:32:17;3.8;;;7.4;;
74483;SDS011;62942;52.462;10.846;2024-01-16T02:33:27;4.1;;;8.4;;
74483;SDS011;62942;52.462;10.846;2024-01-16T02:34:37;4.4;;;7.7;;
74483;SDS011;62942;52.462;10.846;2024-01-16T02:35:37;3.8;;;7.7;;
74483;SDS011;62942;52.462;10.846;2024-01-16T02:36:47;3.9;;;7.4;;
74483;SDS011;62942;52.462;10.846;2024-01-16T02:37:47;4.1;;;7.7;;
74483;SDS011;62942;52.462;10.846;2024-01-16T02:38:57;3.8;;;7.6;;
74483;SDS011;62942;52.462;10.846;2024-01-16T02:39:57;3.9;;;7.2;;
74483;SDS011;62942;52.462;10.846;2024-01-16T02:41:07;3.7;;;7.8;;
74483;SDS011;62942;52.462;10.846;2024-01-16T02:42:17;3.8;;;7.1;;
74483;SDS011;62942;52.462;10.846;2024-01-16T02:43:27;3.8;;;6.4;;
74483;SDS011;62942;52.462;10.846;2024-01-16T02:44:37;3.7;;;6.6;;
74483;SDS011;62942;52.462;10.846;2024-01-16T02:45:47;3.8;;;6.8;;
74483;SDS011;62942;52.462;10.846;2024-01-16T02:46:57;3.7;;;6.9;;
74483;SDS011;62942;52.462;10.846;2024-01-16T02:48:07;3.9;;;6;;
74483;SDS011;62942;52.462;10.846;2024-01-16T02:49:07;3.8;;;8.4;;
74483;SDS011;62942;52.462;10.846;2024-01-16T02:50:17;3.8;;;7.2;;
74483;SDS011;62942;52.462;10.846;2024-01-16T02:51:17;3.9;;;6.9;;
74483;SDS011;62942;52.462;10.846;2024-01-16T02:52:17;3.6;;;5.8;;
74483;SDS011;62942;52.462;10.846;2024-01-16T02:53:27;3.7;;;6.3;;
74483;SDS011;62942;52.462;10.846;2024-01-16T02:54:37;3.7;;;6.5;;
74483;SDS011;62942;52.462;10.846;2024-01-16T02:55:47;3.8;;;7.3;;
74483;SDS011;62942;52.462;10.846;2024-01-16T02:56:57;3.6;;;6.7;;
74483;SDS011;62942;52.462;10.846;2024-01-16T02:57:57;3.6;;;6.2;;
74483;SDS011;62942;52.462;10.846;2024-01-16T02:59:07;3.5;;;6.3;;
74483;SDS011;62942;52.462;10.846;2024-01-16T03:00:17;3.4;;;6;;
74483;SDS011;62942;52.462;10.846;2024-01-16T03:01:17;3.6;;;7.1;;
74483;SDS011;62942;52.462;10.846;2024-01-16T03:02:17;3.6;;;7;;
74483;SDS011;62942;52.462;10.846;2024-01-16T03:03:17;3.7;;;6.1;;
74483;SDS011;62942;52.462;10.846;2024-01-16T03:04:27;3.8;;;7;;
74483;SDS011;62942;52.462;10.846;2024-01-16T03:05:37;3.7;;;5.8;;
74483;SDS011;62942;52.462;10.846;2024-01-16T03:06:37;3.6;;;6.4;;
74483;SDS011;62942;52.462;10.846;2024-01-16T03:07:47;3.9;;;6.8;;
74483;SDS011;62942;52.462;10.846;2024-01-16T03:08:57;3.9;;;7.5;;
74483;SDS011;62942;52.462;10.846;2024-01-16T03:09:57;4;;;6.5;;
74483;SDS011;62942;52.462;10.846;2024-01-16T03:10:57;4;;;7.3;;
74483;SDS011;62942;52.462;10.846;2024-01-16T03:12:07;4.2;;;6.6;;
74483;SDS011;62942;52.462;10.846;2024-01-16T03:13:17;4;;;6.6;;
74483;SDS011;62942;52.462;10.846;2024-01-16T03:14:27;4.3;;;6.8;;
74483;SDS011;62942;52.462;10.846;2024-01-16T03:15:37;4.3;;;7.3;;
74483;SDS011;62942;52.462;10.846;2024-01-16T03:16:47;4.5;;;7.4;;
74483;SDS011;62942;52.462;10.846;2024-01-16T03:17:47;4.3;;;7.9;;
74483;SDS011;62942;52.462;10.846;2024-01-16T03:18:47;4.7;;;9.3;;
74483;SDS011;62942;52.462;10.846;2024-01-16T03:19:57;4.5;;;8.9;;
74483;SDS011;62942;52.462;10.846;2024-01-16T03:21:07;4.8;;;7.4;;
74483;SDS011;62942;52.462;10.846;2024-01-16T03:22:17;4.7;;;8.2;;
74483;SDS011;62942;52.462;10.846;2024-01-16T03:23:17;4.7;;;8.1;;
74483;SDS011;62942;52.462;10.846;2024-01-16T03:24:27;5;;;8.6;;
74483;SDS011;62942;52.462;10.846;2024-01-16T03:25:27;4.8;;;9.1;;
74483;SDS011;62942;52.462;10.846;2024-01-16T03:26:37;4.6;;;7.6;;
74483;SDS011;62942;52.462;10.846;2024-01-16T03:27:37;4.9;;;8.2;;
74483;SDS011;62942;52.462;10.846;2024-01-16T03:28:47;4.7;;;7.6;;
74483;SDS011;62942;52.462;10.846;2024-01-16T03:29:57;4.7;;;9.3;;
74483;SDS011;62942;52.462;10.846;2024-01-16T03:31:07;4.8;;;8.8;;
74483;SDS011;62942;52.462;10.846;2024-01-16T03:32:07;4.5;;;8.7;;
74483;SDS011;62942;52.462;10.846;2024-01-16T03:33:17;4.3;;;7.9;;
74483;SDS011;62942;52.462;10.846;2024-01-16T03:34:27;4.1;;;7.1;;
74483;SDS011;62942;52.462;10.846;2024-01-16T03:35:37;3.4;;;6;;
74483;SDS011;62942;52.462;10.846;2024-01-16T03:36:47;3.5;;;7.8;;
74483;SDS011;62942;52.462;10.846;2024-01-16T03:37:47;3.3;;;6.5;;
74483;SDS011;62942;52.462;10.846;2024-01-16T03:38:57;3.3;;;6.8;;
74483;SDS011;62942;52.462;10.846;2024-01-16T03:40:07;3.2;;;5.3;;
74483;SDS011;62942;52.462;10.846;2024-01-16T03:41:17;3.4;;;7.1;;
74483;SDS011;62942;52.462;10.846;2024-01-16T03:42:27;3.4;;;7;;
74483;SDS011;62942;52.462;10.846;2024-01-16T03:43:37;3.1;;;6.8;;
74483;SDS011;62942;52.462;10.846;2024-01-16T03:44:46;3;;;6.5;;
74483;SDS011;62942;52.462;10.846;2024-01-16T03:45:57;3.1;;;7.2;;
74483;SDS011;62942;52.462;10.846;2024-01-16T03:47:07;2.9;;;6.9;;
74483;SDS011;62942;52.462;10.846;2024-01-16T03:48:07;2.7;;;5.8;;
74483;SDS011;62942;52.462;10.846;2024-01-16T03:49:17;2.6;;;5.3;;
74483;SDS011;62942;52.462;10.846;2024-01-16T03:50:27;2.6;;;6.1;;
74483;SDS011;62942;52.462;10.846;2024-01-16T03:51:37;2.6;;;5.6;;
74483;SDS011;62942;52.462;10.846;2024-01-16T03:52:47;2.6;;;5.8;;
74483;SDS011;62942;52.462;10.846;2024-01-16T03:53:57;2.6;;;5.5;;
74483;SDS011;62942;52.462;10.846;2024-01-16T03:54:57;2.8;;;6.9;;
74483;SDS011;62942;52.462;10.846;2024-01-16T03:56:07;2.7;;;5.2;;
74483;SDS011;62942;52.462;10.846;2024-01-16T03:57:17;2.5;;;5;;
74483;SDS011;62942;52.462;10.846;2024-01-16T03:58:26;2.5;;;6;;
74483;SDS011;62942;52.462;10.846;2024-01-16T03:59:37;2.4;;;5.1;;
74483;SDS011;62942;52.462;10.846;2024-01-16T04:00:46;2.5;;;6.3;;
74483;SDS011;62942;52.462;10.846;2024-01-16T04:01:47;2.4;;;5.4;;
74483;SDS011;62942;52.462;10.846;2024-01-16T04:02:56;2.3;;;4.8;;
74483;SDS011;62942;52.462;10.846;2024-01-16T04:03:57;2.4;;;5;;
74483;SDS011;62942;52.462;10.846;2024-01-16T04:05:07;2.4;;;5.2;;
74483;SDS011;62942;52.462;10.846;2024-01-16T04:06:17;2.4;;;4.4;;
74483;SDS011;62942;52.462;10.846;2024-01-16T04:07:27;2.3;;;5.5;;
74483;SDS011;62942;52.462;10.846;2024-01-16T04:08:26;2.4;;;5.4;;
74483;SDS011;62942;52.462;10.846;2024-01-16T04:09:36;2.5;;;5.1;;
74483;SDS011;62942;52.462;10.846;2024-01-16T04:10:36;2.4;;;5.3;;
74483;SDS011;62942;52.462;10.846;2024-01-16T04:11:49;2.2;;;5.8;;
74483;SDS011;62942;52.462;10.846;2024-01-16T04:12:59;2.4;;;5.8;;
74483;SDS011;62942;52.462;10.846;2024-01-16T04:13:56;2.1;;;5.4;;
74483;SDS011;62942;52.462;10.846;2024-01-16T04:15:07;2.1;;;3.9;;
74483;SDS011;62942;52.462;10.846;2024-01-16T04:16:16;2.1;;;3.6;;
74483;SDS011;62942;52.462;10.846;2024-01-16T04:17:16;2.1;;;4.5;;
74483;SDS011;62942;52.462;10.846;2024-01-16T04:18:26;2.1;;;4.7;;
74483;SDS011;62942;52.462;10.846;2024-01-16T04:19:36;1.9;;;4.5;;
74483;SDS011;62942;52.462;10.846;2024-01-16T04:20:36;2;;;4;;
74483;SDS011;62942;52.462;10.846;2024-01-16T04:21:46;1.9;;;6.7;;
74483;SDS011;62942;52.462;10.846;2024-01-16T04:22:46;1.7;;;4.2;;
74483;SDS011;62942;52.462;10.846;2024-01-16T04:23:46;1.9;;;4.3;;
74483;SDS011;62942;52.462;10.846;2024-01-16T04:24:56;1.8;;;3.9;;
74483;SDS011;62942;52.462;10.846;2024-01-16T04:26:06;1.5;;;4.5;;
74483;SDS011;62942;52.462;10.846;2024-01-16T04:27:06;1.4;;;4.6;;
74483;SDS011;62942;52.462;10.846;2024-01-16T04:28:07;1.5;;;3.6;;
74483;SDS011;62942;52.462;10.846;2024-01-16T04:29:16;1.4;;;4.1;;
74483;SDS011;62942;52.462;10.846;2024-01-16T04:30:16;1.4;;;3.7;;
74483;SDS011;62942;52.462;10.846;2024-01-16T04:31:26;1.4;;;4.4;;
74483;SDS011;62942;52.462;10.846;2024-01-16T04:32:26;1.4;;;3.2;;
74483;SDS011;62942;52.462;10.846;2024-01-16T04:33:36;1.4;;;3.8;;
74483;SDS011;62942;52.462;10.846;2024-01-16T04:34:36;1.3;;;3.3;;
74483;SDS011;62942;52.462;10.846;2024-01-16T04:35:46;1.4;;;4.1;;
74483;SDS011;62942;52.462;10.846;2024-01-16T04:36:57;1.5;;;6.3;;
74483;SDS011;62942;52.462;10.846;2024-01-16T04:38:06;1.5;;;4.7;;
74483;SDS011;62942;52.462;10.846;2024-01-16T04:39:06;1.5;;;4.3;;
74483;SDS011;62942;52.462;10.846;2024-01-16T04:40:07;1.4;;;4.2;;
74483;SDS011;62942;52.462;10.846;2024-01-16T04:41:17;1.6;;;3.9;;
74483;SDS011;62942;52.462;10.846;2024-01-16T04:42:26;1.6;;;4.9;;
74483;SDS011;62942;52.462;10.846;2024-01-16T04:43:36;1.6;;;4.6;;
74483;SDS011;62942;52.462;10.846;2024-01-16T04:44:46;1.5;;;4;;
74483;SDS011;62942;52.462;10.846;2024-01-16T04:45:56;1.5;;;3.8;;
74483;SDS011;62942;52.462;10.846;2024-01-16T04:47:06;1.7;;;5.3;;
74483;SDS011;62942;52.462;10.846;2024-01-16T04:48:06;1.8;;;4;;
74483;SDS011;62942;52.462;10.846;2024-01-16T04:49:16;1.8;;;5.3;;
74483;SDS011;62942;52.462;10.846;2024-01-16T04:50:26;1.8;;;4.9;;
74483;SDS011;62942;52.462;10.846;2024-01-16T04:51:36;2;;;4.8;;
74483;SDS011;62942;52.462;10.846;2024-01-16T04:52:46;2;;;4.7;;
74483;SDS011;62942;52.462;10.846;2024-01-16T04:53:46;2.2;;;5.4;;
74483;SDS011;62942;52.462;10.846;2024-01-16T04:54:56;2.1;;;5;;
74483;SDS011;62942;52.462;10.846;2024-01-16T04:56:06;2.2;;;5.1;;
74483;SDS011;62942;52.462;10.846;2024-01-16T04:57:06;2.1;;;4.5;;
74483;SDS011;62942;52.462;10.846;2024-01-16T04:58:16;2.4;;;6.7;;
74483;SDS011;62942;52.462;10.846;2024-01-16T04:59:16;2.2;;;5;;
74483;SDS011;62942;52.462;10.846;2024-01-16T05:00:26;2.2;;;5.5;;
74483;SDS011;62942;52.462;10.846;2024-01-16T05:01:26;2.4;;;6.1;;
74483;SDS011;62942;52.462;10.846;2024-01-16T05:02:36;2.3;;;5.5;;
74483;SDS011;62942;52.462;10.846;2024-01-16T05:03:46;2.2;;;5.5;;
74483;SDS011;62942;52.462;10.846;2024-01-16T05:04:56;2.4;;;5.3;;
74483;SDS011;62942;52.462;10.846;2024-01-16T05:06:11;2.4;;;4.9;;
74483;SDS011;62942;52.462;10.846;2024-01-16T05:07:17;2.2;;;5.1;;
74483;SDS011;62942;52.462;10.846;2024-01-16T05:08:27;2.4;;;6.3;;
74483;SDS011;62942;52.462;10.846;2024-01-16T05:09:36;2.5;;;7.1;;
74483;SDS011;62942;52.462;10.846;2024-01-16T05:10:46;2.6;;;5.9;;
74483;SDS011;62942;52.462;10.846;2024-01-16T05:11:56;2.4;;;4.6;;
74483;SDS011;62942;52.462;10.846;2024-01-16T05:13:06;2.9;;;6.9;;
74483;SDS011;62942;52.462;10.846;2024-01-16T05:14:06;2.6;;;6.4;;
74483;SDS011;62942;52.462;10.846;2024-01-16T05:15:16;2.6;;;6.4;;
74483;SDS011;62942;52.462;10.846;2024-01-16T05:16:16;2.7;;;6;;
74483;SDS011;62942;52.462;10.846;2024-01-16T05:17:26;2.7;;;7.1;;
74483;SDS011;62942;52.462;10.846;2024-01-16T05:18:36;2.7;;;7.3;;
74483;SDS011;62942;52.462;10.846;2024-01-16T05:19:46;2.7;;;5.5;;
74483;SDS011;62942;52.462;10.846;2024-01-16T05:20:56;3;;;7.7;;
74483;SDS011;62942;52.462;10.846;2024-01-16T05:22:06;3.1;;;7.7;;
74483;SDS011;62942;52.462;10.846;2024-01-16T05:23:06;2.7;;;7.6;;
74483;SDS011;62942;52.462;10.846;2024-01-16T05:24:16;3;;;7.1;;
74483;SDS011;62942;52.462;10.846;2024-01-16T05:25:26;2.7;;;7.9;;
74483;SDS011;62942;52.462;10.846;2024-01-16T05:26:36;2.8;;;6.1;;
74483;SDS011;62942;52.462;10.846;2024-01-16T05:27:46;2.8;;;6.3;;
74483;SDS011;62942;52.462;10.846;2024-01-16T05:28:56;2.8;;;7.5;;
74483;SDS011;62942;52.462;10.846;2024-01-16T05:29:56;2.8;;;7.4;;
74483;SDS011;62942;52.462;10.846;2024-01-16T05:31:06;2.9;;;7;;
74483;SDS011;62942;52.462;10.846;2024-01-16T05:32:16;2.9;;;9.5;;
74483;SDS011;62942;52.462;10.846;2024-01-16T05:33:16;2.7;;;7.4;;
74483;SDS011;62942;52.462;10.846;2024-01-16T05:34:16;3;;;6.4;;
74483;SDS011;62942;52.462;10.846;2024-01-16T05:35:26;2.9;;;7;;
74483;SDS011;62942;52.462;10.846;2024-01-16T05:36:26;3;;;7.8;;
74483;SDS011;62942;52.462;10.846;2024-01-16T05:37:36;3;;;11.8;;
74483;SDS011;62942;52.462;10.846;2024-01-16T05:38:46;2.9;;;7.9;;
74483;SDS011;62942;52.462;10.846;2024-01-16T05:39:57;2.8;;;7.3;;
74483;SDS011;62942;52.462;10.846;2024-01-16T05:41:06;2.7;;;7.2;;
74483;SDS011;62942;52.462;10.846;2024-01-16T05:42:06;3;;;7.7;;
74483;SDS011;62942;52.462;10.846;2024-01-16T05:43:06;3;;;8.3;;
74483;SDS011;62942;52.462;10.846;2024-01-16T05:44:16;3;;;7.9;;
74483;SDS011;62942;52.462;10.846;2024-01-16T05:45:16;2.9;;;7.7;;
74483;SDS011;62942;52.462;10.846;2024-01-16T05:46:26;2.9;;;7.9;;
74483;SDS011;62942;52.462;10.846;2024-01-16T05:47:36;3;;;8.2;;
74483;SDS011;62942;52.462;10.846;2024-01-16T05:48:46;3.1;;;6.6;;
74483;SDS011;62942;52.462;10.846;2024-01-16T05:49:56;3.1;;;8.3;;
74483;SDS011;62942;52.462;10.846;2024-01-16T05:50:56;3.1;;;9;;
74483;SDS011;62942;52.462;10.846;2024-01-16T05:52:06;3;;;9.3;;
74483;SDS011;62942;52.462;10.846;2024-01-16T05:53:06;3.2;;;8.9;;
74483;SDS011;62942;52.462;10.846;2024-01-16T05:54:16;3;;;7.8;;
74483;SDS011;62942;52.462;10.846;2024-01-16T05:55:26;3.2;;;7.7;;
74483;SDS011;62942;52.462;10.846;2024-01-16T05:56:36;3;;;8.6;;
74483;SDS011;62942;52.462;10.846;2024-01-16T05:57:46;3;;;9.1;;
74483;SDS011;62942;52.462;10.846;2024-01-16T05:58:46;3.2;;;8;;
74483;SDS011;62942;52.462;10.846;2024-01-16T05:59:56;3;;;8.8;;
74483;SDS011;62942;52.462;10.846;2024-01-16T06:01:06;3.1;;;8.3;;
74483;SDS011;62942;52.462;10.846;2024-01-16T06:02:06;2.9;;;7.7;;
74483;SDS011;62942;52.462;10.846;2024-01-16T06:03:16;2.9;;;7.7;;
74483;SDS011;62942;52.462;10.846;2024-01-16T06:04:26;3.1;;;7.8;;
74483;SDS011;62942;52.462;10.846;2024-01-16T06:05:36;3;;;8.6;;
74483;SDS011;62942;52.462;10.846;2024-01-16T06:06:46;3.3;;;13.1;;
74483;SDS011;62942;52.462;10.846;2024-01-16T06:07:46;2.9;;;8.2;;
74483;SDS011;62942;52.462;10.846;2024-01-16T06:08:46;3;;;9.3;;
74483;SDS011;62942;52.462;10.846;2024-01-16T06:09:56;2.8;;;8.1;;
74483;SDS011;62942;52.462;10.846;2024-01-16T06:11:06;3.1;;;9;;
74483;SDS011;62942;52.462;10.846;2024-01-16T06:12:16;3;;;7.1;;
74483;SDS011;62942;52.462;10.846;2024-01-16T06:13:17;2.9;;;7.6;;
74483;SDS011;62942;52.462;10.846;2024-01-16T06:14:26;2.7;;;7.6;;
74483;SDS011;62942;52.462;10.846;2024-01-16T06:15:26;2.9;;;9.4;;
74483;SDS011;62942;52.462;10.846;2024-01-16T06:16:36;2.9;;;9.5;;
74483;SDS011;62942;52.462;10.846;2024-01-16T06:17:46;2.8;;;7;;
74483;SDS011;62942;52.462;10.846;2024-01-16T06:18:56;3;;;7.8;;
74483;SDS011;62942;52.462;10.846;2024-01-16T06:20:06;2.8;;;8.5;;
74483;SDS011;62942;52.462;10.846;2024-01-16T06:21:06;2.9;;;8.7;;
74483;SDS011;62942;52.462;10.846;2024-01-16T06:22:16;2.8;;;9.8;;
74483;SDS011;62942;52.462;10.846;2024-01-16T06:23:26;3.1;;;9.6;;
74483;SDS011;62942;52.462;10.846;2024-01-16T06:24:36;2.8;;;9.1;;
74483;SDS011;62942;52.462;10.846;2024-01-16T06:25:46;2.8;;;8.4;;
74483;SDS011;62942;52.462;10.846;2024-01-16T06:26:46;2.5;;;7;;
74483;SDS011;62942;52.462;10.846;2024-01-16T06:27:56;2.8;;;7.5;;
74483;SDS011;62942;52.462;10.846;2024-01-16T06:29:06;3;;;8.8;;
74483;SDS011;62942;52.462;10.846;2024-01-16T06:30:16;2.8;;;8.3;;
74483;SDS011;62942;52.462;10.846;2024-01-16T06:31:26;3;;;8.2;;
74483;SDS011;62942;52.462;10.846;2024-01-16T06:32:36;2.9;;;8.9;;
74483;SDS011;62942;52.462;10.846;2024-01-16T06:33:46;2.7;;;9.6;;
74483;SDS011;62942;52.462;10.846;2024-01-16T06:34:56;2.6;;;7.6;;
74483;SDS011;62942;52.462;10.846;2024-01-16T06:36:06;2.9;;;9.2;;
74483;SDS011;62942;52.462;10.846;2024-01-16T06:37:06;2.9;;;10.1;;
74483;SDS011;62942;52.462;10.846;2024-01-16T06:38:16;2.8;;;8.5;;
74483;SDS011;62942;52.462;10.846;2024-01-16T06:39:16;2.9;;;8.9;;
74483;SDS011;62942;52.462;10.846;2024-01-16T06:40:16;2.6;;;7.3;;
74483;SDS011;62942;52.462;10.846;2024-01-16T06:41:26;2.9;;;7.9;;
74483;SDS011;62942;52.462;10.846;2024-01-16T06:42:26;2.9;;;9.4;;
74483;SDS011;62942;52.462;10.846;2024-01-16T06:43:36;2.6;;;8.2;;
74483;SDS011;62942;52.462;10.846;2024-01-16T06:44:46;2.8;;;8.8;;
74483;SDS011;62942;52.462;10.846;2024-01-16T06:45:46;3;;;13.8;;
74483;SDS011;62942;52.462;10.846;2024-01-16T06:46:46;2.9;;;8.9;;
74483;SDS011;62942;52.462;10.846;2024-01-16T06:47:56;2.7;;;8.3;;
74483;SDS011;62942;52.462;10.846;2024-01-16T06:48:56;2.7;;;10.2;;
74483;SDS011;62942;52.462;10.846;2024-01-16T06:50:06;2.4;;;6.2;;
74483;SDS011;62942;52.462;10.846;2024-01-16T06:51:16;2.7;;;7.4;;
74483;SDS011;62942;52.462;10.846;2024-01-16T06:52:16;2.7;;;9.6;;